createdAt,value
2022-10-01T00:01:19.280Z,93.51
2022-10-01T00:03:47.586Z,93.19
2022-10-01T00:06:19.241Z,93.44
2022-10-01T00:08:49.998Z,93.68
2022-10-01T00:11:22.852Z,94.07
2022-10-01T00:13:51.473Z,93.83
2022-10-01T00:16:29.097Z,93.99
2022-10-01T00:18:56.171Z,94.16
2022-10-01T00:21:26.172Z,94.38
2022-10-01T05:32:42.325Z,96.89
2022-10-01T05:35:10.226Z,96.75
2022-10-01T05:37:36.966Z,96.75
2022-10-01T05:40:04.110Z,96.63
2022-10-01T05:42:31.384Z,96.45
2022-10-01T05:45:01.995Z,96.27
2022-10-01T05:47:29.830Z,96.33
2022-10-01T05:49:57.117Z,96.31
2022-10-01T05:52:24.805Z,96.17
2022-10-01T05:54:51.490Z,96.30
2022-10-01T05:57:18.019Z,96.09
2022-10-01T05:59:44.580Z,95.95
2022-10-01T06:02:11.153Z,96.23
2022-10-01T06:04:41.164Z,96.34
2022-10-01T06:07:07.980Z,96.44
2022-10-01T06:09:34.639Z,96.49
2022-10-01T06:12:01.544Z,96.49
2022-10-01T06:14:28.054Z,96.61
2022-10-01T06:16:54.962Z,96.60
2022-10-01T06:19:22.081Z,96.55
2022-10-01T06:21:48.613Z,96.51
2022-10-01T06:24:15.208Z,96.54
2022-10-01T06:26:41.743Z,96.44
2022-10-01T06:29:08.233Z,96.54
2022-10-01T06:31:35.061Z,96.73
2022-10-01T06:34:01.999Z,96.86
2022-10-01T06:36:28.765Z,96.73
2022-10-01T06:38:55.384Z,96.83
2022-10-01T06:41:21.907Z,96.73
2022-10-01T06:43:49.499Z,96.39
2022-10-01T06:46:16.066Z,96.08
2022-10-01T06:48:42.725Z,95.61
2022-10-01T06:51:09.266Z,95.21
2022-10-01T06:53:35.853Z,94.02
2022-10-01T06:56:07.214Z,93.73
2022-10-01T06:58:33.956Z,93.90
2022-10-01T07:01:02.187Z,94.04
2022-10-01T07:03:29.649Z,94.19
2022-10-01T07:06:02.492Z,93.94
2022-10-01T07:08:29.119Z,92.20
2022-10-01T07:11:02.603Z,88.71
2022-10-01T07:13:29.796Z,87.34
2022-10-01T07:15:57.808Z,87.84
2022-10-01T07:18:24.459Z,87.07
2022-10-01T07:20:51.709Z,88.66
2022-10-01T07:23:18.442Z,89.14
2022-10-01T07:25:45.733Z,89.53
2022-10-01T07:28:18.743Z,91.58
2022-10-01T07:30:48.157Z,92.19
2022-10-01T07:33:18.499Z,92.45
2022-10-01T07:35:47.758Z,92.49
2022-10-01T07:38:14.325Z,92.50
2022-10-01T07:40:41.701Z,93.03
2022-10-01T07:43:09.189Z,93.75
2022-10-01T07:45:36.248Z,93.75
2022-10-01T07:48:03.383Z,92.98
2022-10-01T07:50:30.637Z,92.51
2022-10-01T07:52:59.091Z,92.54
2022-10-01T07:55:28.399Z,91.82
2022-10-01T07:57:57.226Z,91.36
2022-10-01T08:00:25.763Z,89.28
2022-10-01T08:02:54.314Z,85.66
2022-10-01T08:05:25.403Z,81.64
2022-10-01T08:07:52.418Z,78.15
2022-10-01T08:10:20.707Z,77.42
2022-10-01T08:12:47.345Z,75.50
2022-10-01T08:15:16.642Z,73.72
2022-10-01T08:17:43.823Z,72.78
2022-10-01T08:20:13.727Z,73.91
2022-10-01T08:22:42.335Z,72.34
2022-10-01T08:25:09.964Z,71.51
2022-10-01T08:27:37.681Z,69.66
2022-10-01T08:30:05.441Z,72.15
2022-10-01T08:32:32.600Z,75.85
2022-10-01T08:34:59.954Z,75.52
2022-10-01T08:37:29.904Z,78.08
2022-10-01T08:39:56.878Z,75.02
2022-10-01T08:42:42.144Z,72.93
2022-10-01T08:45:21.841Z,70.82
2022-10-01T08:48:05.180Z,68.74
2022-10-01T08:51:12.464Z,66.74
2022-10-01T08:53:57.849Z,66.11
2022-10-01T08:56:31.232Z,64.13
2022-10-01T08:59:00.912Z,62.87
2022-10-01T09:01:28.449Z,62.69
2022-10-01T09:03:55.908Z,62.51
2022-10-01T09:06:29.226Z,60.71
2022-10-01T09:09:01.774Z,62.06
2022-10-01T09:12:06.248Z,58.99
2022-10-01T09:14:49.754Z,57.88
2022-10-01T09:17:26.462Z,60.91
2022-10-01T09:20:22.094Z,66.15
2022-10-01T09:23:00.923Z,68.42
2022-10-01T09:25:28.012Z,70.57
2022-10-01T09:28:03.077Z,68.59
2022-10-01T09:30:31.770Z,69.86
2022-10-01T09:33:15.841Z,62.94
2022-10-01T09:35:45.459Z,64.01
2022-10-01T09:38:21.703Z,57.61
2022-10-01T09:40:49.245Z,57.00
2022-10-01T09:43:19.937Z,58.01
2022-10-01T09:45:48.487Z,57.65
2022-10-01T09:48:30.679Z,56.47
2022-10-01T09:51:22.810Z,60.90
2022-10-01T09:54:26.806Z,61.34
2022-10-01T09:57:00.498Z,55.01
2022-10-01T09:59:34.893Z,53.47
2022-10-01T10:02:04.041Z,55.21
2022-10-01T10:04:31.052Z,54.00
2022-10-01T10:07:06.021Z,53.45
2022-10-01T10:09:35.174Z,53.60
2022-10-01T10:12:02.552Z,54.93
2022-10-01T10:14:35.843Z,59.73
2022-10-01T10:17:22.064Z,60.79
2022-10-01T10:19:51.890Z,54.40
2022-10-01T10:22:26.577Z,52.41
2022-10-01T10:24:58.675Z,51.67
2022-10-01T10:27:29.155Z,53.73
2022-10-01T10:30:15.496Z,59.03
2022-10-01T10:32:44.448Z,53.44
2022-10-01T10:35:22.975Z,52.09
2022-10-01T10:37:53.625Z,53.68
2022-10-01T10:40:41.968Z,50.05
2022-10-01T10:43:23.359Z,54.43
2022-10-01T10:45:56.486Z,56.42
2022-10-01T10:48:36.221Z,60.65
2022-10-01T10:51:05.292Z,62.86
2022-10-01T10:53:46.914Z,63.30
2022-10-01T10:56:22.874Z,55.20
2022-10-01T10:58:52.707Z,54.61
2022-10-01T11:01:27.887Z,53.72
2022-10-01T11:03:57.704Z,51.15
2022-10-01T11:06:24.447Z,49.69
2022-10-01T11:09:00.440Z,45.77
2022-10-01T11:11:43.243Z,44.50
2022-10-01T11:14:32.377Z,51.35
2022-10-01T11:17:18.859Z,57.30
2022-10-01T11:20:22.339Z,53.66
2022-10-01T11:23:08.091Z,51.55
2022-10-01T11:25:46.552Z,51.04
2022-10-01T11:28:28.359Z,49.10
2022-10-01T11:31:15.395Z,49.65
2022-10-01T11:34:14.839Z,55.63
2022-10-01T11:36:56.036Z,54.54
2022-10-01T11:39:24.702Z,56.53
2022-10-01T11:42:06.943Z,53.74
2022-10-01T11:44:43.658Z,55.90
2022-10-01T11:47:16.631Z,60.00
2022-10-01T11:49:54.648Z,60.32
2022-10-01T11:52:32.825Z,61.16
2022-10-01T11:55:51.476Z,62.06
2022-10-01T11:58:58.826Z,62.83
2022-10-01T12:01:49.316Z,54.10
2022-10-01T12:04:39.224Z,56.35
2022-10-01T12:07:08.683Z,51.78
2022-10-01T12:09:54.561Z,47.57
2022-10-01T12:12:40.915Z,46.72
2022-10-01T12:15:34.866Z,46.08
2022-10-01T12:18:42.435Z,46.18
2022-10-01T12:21:26.011Z,44.34
2022-10-01T12:24:35.177Z,43.65
2022-10-01T12:27:31.414Z,44.62
2022-10-01T12:30:25.979Z,43.11
2022-10-01T12:33:12.344Z,45.48
2022-10-01T12:39:50.946Z,45.57
2022-10-01T12:42:50.808Z,51.11
2022-10-01T12:45:45.812Z,53.52
2022-10-01T12:48:38.703Z,50.42
2022-10-01T12:51:35.713Z,48.66
2022-10-01T12:54:15.850Z,50.34
2022-10-01T12:57:20.881Z,52.25
2022-10-01T13:00:08.741Z,54.53
2022-10-01T13:03:05.323Z,53.15
2022-10-01T13:06:05.167Z,55.05
2022-10-01T13:08:50.940Z,50.24
2022-10-01T13:11:51.780Z,55.87
2022-10-01T13:14:20.188Z,51.24
2022-10-01T13:16:56.299Z,49.31
2022-10-01T13:20:03.644Z,45.42
2022-10-01T13:22:36.215Z,44.50
2022-10-01T13:25:15.478Z,43.29
2022-10-01T13:28:02.099Z,49.99
2022-10-01T13:30:41.448Z,52.74
2022-10-01T13:33:29.240Z,51.98
2022-10-01T13:36:00.784Z,55.20
2022-10-01T13:38:47.650Z,56.66
2022-10-01T13:41:27.425Z,55.85
2022-10-01T13:43:59.266Z,51.17
2022-10-01T13:46:31.261Z,45.98
2022-10-01T13:49:21.241Z,46.55
2022-10-01T13:51:47.829Z,47.51
2022-10-01T13:54:27.805Z,45.79
2022-10-01T13:56:55.086Z,44.14
2022-10-01T13:59:43.587Z,43.27
2022-10-01T14:02:32.287Z,44.01
2022-10-01T14:05:17.429Z,44.38
2022-10-01T14:08:11.843Z,48.21
2022-10-01T14:11:14.130Z,52.16
2022-10-01T14:14:06.626Z,48.47
2022-10-01T14:16:40.125Z,45.83
2022-10-01T14:19:08.855Z,46.78
2022-10-01T14:21:41.837Z,46.30
2022-10-01T14:24:08.363Z,47.01
2022-10-01T14:27:24.929Z,48.87
2022-10-01T14:30:12.867Z,48.30
2022-10-01T14:33:05.183Z,52.13
2022-10-01T14:35:36.778Z,51.21
2022-10-01T14:38:11.020Z,49.92
2022-10-01T14:40:40.813Z,48.72
2022-10-01T14:43:19.571Z,47.93
2022-10-01T14:46:06.792Z,47.74
2022-10-01T14:48:35.846Z,48.25
2022-10-01T14:51:05.291Z,48.32
2022-10-01T14:53:42.858Z,48.31
2022-10-01T14:56:14.172Z,49.63
2022-10-01T14:59:02.908Z,49.40
2022-10-01T15:01:29.843Z,48.45
2022-10-01T15:03:56.602Z,48.71
2022-10-01T15:06:27.693Z,49.31
2022-10-01T15:08:56.186Z,49.91
2022-10-01T15:11:24.443Z,50.56
2022-10-01T15:13:54.107Z,53.01
2022-10-01T15:16:24.079Z,56.79
2022-10-01T15:18:57.361Z,56.41
2022-10-01T15:21:32.809Z,55.17
2022-10-01T15:23:59.973Z,54.46
2022-10-01T15:26:27.588Z,55.07
2022-10-01T15:29:13.419Z,57.74
2022-10-01T15:31:41.274Z,58.41
2022-10-01T15:34:12.198Z,58.03
2022-10-01T15:36:40.003Z,60.16
2022-10-01T15:39:38.388Z,58.12
2022-10-01T15:42:28.291Z,58.47
2022-10-01T15:45:07.656Z,57.98
2022-10-01T15:47:51.699Z,58.34
2022-10-01T15:50:20.357Z,58.13
2022-10-01T15:53:03.938Z,59.16
2022-10-01T15:55:46.992Z,59.92
2022-10-01T15:58:35.387Z,59.84
2022-10-01T16:01:09.518Z,60.48
2022-10-01T16:03:48.159Z,60.98
2022-10-01T16:06:37.935Z,62.26
2022-10-01T16:09:20.949Z,63.11
2022-10-01T16:12:04.317Z,63.18
2022-10-01T16:14:36.749Z,64.08
2022-10-01T16:17:18.909Z,64.69
2022-10-01T16:19:50.627Z,65.28
2022-10-01T16:22:28.260Z,66.31
2022-10-01T16:24:59.411Z,66.51
2022-10-01T16:27:43.774Z,67.53
2022-10-01T16:30:22.263Z,67.05
2022-10-01T16:32:49.162Z,67.64
2022-10-01T16:35:23.153Z,67.77
2022-10-01T16:37:52.175Z,68.31
2022-10-01T16:40:29.804Z,68.13
2022-10-01T16:42:59.379Z,68.11
2022-10-01T16:45:37.989Z,68.52
2022-10-01T16:48:19.687Z,69.19
2022-10-01T16:50:46.795Z,69.78
2022-10-01T16:53:16.425Z,70.54
2022-10-01T16:55:44.371Z,70.99
2022-10-01T16:58:14.985Z,71.56
2022-10-01T17:00:41.990Z,71.73
2022-10-01T17:03:17.732Z,71.90
2022-10-01T17:05:45.140Z,72.42
2022-10-01T17:08:12.281Z,72.75
2022-10-01T17:10:47.676Z,72.91
2022-10-01T17:13:15.355Z,73.27
2022-10-01T17:15:43.947Z,73.25
2022-10-01T17:18:10.671Z,73.60
2022-10-01T17:20:38.233Z,74.07
2022-10-01T17:23:05.631Z,74.39
2022-10-01T17:25:35.761Z,74.63
2022-10-01T17:28:05.659Z,75.04
2022-10-01T17:30:32.807Z,75.13
2022-10-01T17:33:00.535Z,75.63
2022-10-01T17:35:29.147Z,75.86
2022-10-01T17:37:56.020Z,76.36
2022-10-01T17:40:22.764Z,76.79
2022-10-01T17:42:49.400Z,77.04
2022-10-01T17:45:16.181Z,77.01
2022-10-01T17:47:47.630Z,76.74
2022-10-01T17:50:15.509Z,76.67
2022-10-01T17:52:43.703Z,76.90
2022-10-01T17:55:12.224Z,76.79
2022-10-01T17:57:39.152Z,77.17
2022-10-01T18:00:06.578Z,77.12
2022-10-01T18:02:42.255Z,76.82
2022-10-01T18:05:12.185Z,77.20
2022-10-01T18:07:39.309Z,77.83
2022-10-01T18:10:08.151Z,77.59
2022-10-01T18:12:35.193Z,77.88
2022-10-01T18:15:02.420Z,78.18
2022-10-01T18:17:32.074Z,79.20
2022-10-01T18:19:58.887Z,79.49
2022-10-01T18:22:26.628Z,80.03
2022-10-01T18:24:53.265Z,80.64
2022-10-01T18:27:19.971Z,81.12
2022-10-01T18:29:46.564Z,81.18
2022-10-01T18:32:17.991Z,81.55
2022-10-01T18:34:58.818Z,81.12
2022-10-01T18:37:41.126Z,81.36
2022-10-01T18:40:10.645Z,81.37
2022-10-01T18:42:49.464Z,81.26
2022-10-01T18:45:39.248Z,81.95
2022-10-01T18:48:19.328Z,81.78
2022-10-01T18:51:14.771Z,82.34
2022-10-01T18:54:10.907Z,82.30
2022-10-01T18:56:40.498Z,82.43
2022-10-01T18:59:09.801Z,82.83
2022-10-01T19:02:13.912Z,83.09
2022-10-01T19:05:05.359Z,83.15
2022-10-01T19:08:00.401Z,83.48
2022-10-01T19:11:02.485Z,83.22
2022-10-01T19:13:32.942Z,83.49
2022-10-01T19:16:11.969Z,83.27
2022-10-01T19:19:07.656Z,83.43
2022-10-01T19:21:45.067Z,83.20
2022-10-01T19:24:28.163Z,83.16
2022-10-01T19:27:22.730Z,83.66
2022-10-01T19:29:58.578Z,83.85
2022-10-01T19:32:30.468Z,83.95
2022-10-01T19:35:16.749Z,83.91
2022-10-01T19:37:57.319Z,84.23
2022-10-01T19:40:33.090Z,84.37
2022-10-01T19:43:18.407Z,84.42
2022-10-01T19:45:51.710Z,84.50
2022-10-01T19:49:00.785Z,85.13
2022-10-01T19:51:38.784Z,85.31
2022-10-01T19:54:36.043Z,85.87
2022-10-01T19:57:06.778Z,85.89
2022-10-01T19:59:33.916Z,86.29
2022-10-01T20:02:32.626Z,86.78
2022-10-01T20:05:06.457Z,87.13
2022-10-01T20:07:46.676Z,87.07
2022-10-01T20:10:18.912Z,87.44
2022-10-01T20:13:01.916Z,87.78
2022-10-01T20:15:50.354Z,87.76
2022-10-01T20:18:27.778Z,87.64
2022-10-01T20:21:31.772Z,87.73
2022-10-01T20:24:29.007Z,87.78
2022-10-01T20:27:07.803Z,88.15
2022-10-01T20:29:47.086Z,88.49
2022-10-01T20:32:36.697Z,88.50
2022-10-01T20:35:29.160Z,88.53
2022-10-01T20:38:06.861Z,88.68
2022-10-01T20:40:49.893Z,88.85
2022-10-01T20:43:31.367Z,88.83
2022-10-01T20:46:02.877Z,88.98
2022-10-01T20:48:36.270Z,89.26
2022-10-01T20:51:12.123Z,89.64
2022-10-01T20:54:05.706Z,89.71
2022-10-01T20:56:38.149Z,89.98
2022-10-01T20:59:16.819Z,90.36
2022-10-01T21:01:53.503Z,90.32
2022-10-01T21:04:28.060Z,90.49
2022-10-01T21:07:02.447Z,90.64
2022-10-01T21:09:41.184Z,91.04
2022-10-01T21:12:17.734Z,91.14
2022-10-01T21:14:52.295Z,91.15
2022-10-01T21:17:54.029Z,91.16
2022-10-01T21:20:40.769Z,91.11
2022-10-01T21:23:31.601Z,90.93
2022-10-01T21:26:24.675Z,90.90
2022-10-01T21:28:51.384Z,90.70
2022-10-01T21:31:20.773Z,90.77
2022-10-01T21:34:09.358Z,90.65
2022-10-01T21:36:44.845Z,90.83
2022-10-01T21:39:27.710Z,90.83
2022-10-01T21:42:12.885Z,90.98
2022-10-01T21:45:16.832Z,90.79
2022-10-01T21:47:52.799Z,90.95
2022-10-01T21:50:44.408Z,90.73
2022-10-01T21:53:48.989Z,90.68
2022-10-01T21:56:38.567Z,90.56
2022-10-01T21:59:15.744Z,90.64
2022-10-01T22:02:10.353Z,90.76
2022-10-01T22:05:00.764Z,90.95
2022-10-01T22:07:57.550Z,90.96
2022-10-01T22:10:33.526Z,90.95
2022-10-01T22:13:04.403Z,90.99
2022-10-01T22:15:30.908Z,90.75
2022-10-01T22:17:59.811Z,90.60
2022-10-01T22:20:31.111Z,91.06
2022-10-01T22:23:01.430Z,90.79
2022-10-01T22:25:30.250Z,91.41
2022-10-01T22:28:03.407Z,91.72
2022-10-01T22:30:34.139Z,91.58
2022-10-01T22:33:12.716Z,90.84
2022-10-01T22:35:57.627Z,88.08
2022-10-01T22:38:40.438Z,88.30
2022-10-01T22:41:30.659Z,87.63
2022-10-01T22:43:57.335Z,88.77
2022-10-01T22:46:40.859Z,88.75
